createdAt,value
2023-05-14T00:03:41.245Z,12.10
2023-05-14T00:08:43.305Z,12.10
2023-05-14T00:13:45.309Z,12.10
2023-05-14T00:18:49.075Z,12.10
2023-05-14T00:23:51.130Z,12.10
2023-05-14T00:28:53.086Z,12.10
2023-05-14T00:33:56.504Z,12.10
2023-05-14T00:38:58.449Z,12.10
2023-05-14T00:44:00.173Z,12.10
2023-05-14T00:49:03.434Z,12.00
2023-05-14T00:54:06.518Z,12.00
2023-05-14T00:59:08.401Z,12.00
2023-05-14T01:04:12.958Z,12.00
2023-05-14T01:09:20.076Z,12.10
2023-05-14T01:14:26.571Z,12.10
2023-05-14T01:19:36.769Z,12.00
2023-05-14T01:24:39.958Z,12.00
2023-05-14T01:29:46.799Z,12.00
2023-05-14T01:34:50.006Z,12.00
2023-05-14T01:39:54.353Z,12.00
2023-05-14T01:44:56.304Z,12.00
2023-05-14T01:49:58.135Z,12.00
2023-05-14T01:55:01.652Z,12.00
2023-05-14T02:00:04.622Z,12.00
2023-05-14T02:05:07.415Z,12.00
2023-05-14T02:10:11.871Z,12.00
2023-05-14T02:15:14.441Z,12.00
2023-05-14T02:20:16.740Z,12.00
2023-05-14T02:25:19.985Z,12.00
2023-05-14T02:30:23.534Z,12.00
2023-05-14T02:35:25.859Z,12.00
2023-05-14T02:40:28.917Z,11.90
2023-05-14T02:45:30.670Z,12.00
2023-05-14T02:50:32.712Z,12.00
2023-05-14T02:55:36.513Z,11.90
2023-05-14T03:00:38.332Z,11.90
2023-05-14T03:05:40.565Z,11.90
2023-05-14T03:10:43.915Z,11.80
2023-05-14T03:15:45.664Z,11.70
2023-05-14T03:20:47.218Z,11.70
2023-05-14T03:25:51.148Z,11.70
2023-05-14T03:30:52.972Z,11.60
2023-05-14T03:35:54.637Z,11.60
2023-05-14T03:40:59.050Z,11.50
2023-05-14T03:46:00.825Z,11.50
2023-05-14T03:51:02.630Z,11.50
2023-05-14T03:56:06.350Z,11.50
2023-05-14T04:01:08.260Z,11.40
2023-05-14T04:06:10.396Z,11.40
2023-05-14T04:11:13.676Z,11.30
2023-05-14T04:16:15.753Z,11.30
2023-05-14T04:21:17.631Z,11.20
2023-05-14T04:26:21.571Z,11.30
2023-05-14T04:31:23.445Z,11.30
2023-05-14T04:36:25.396Z,11.40
2023-05-14T04:41:28.415Z,11.50
2023-05-14T04:46:30.279Z,11.60
2023-05-14T04:51:32.708Z,11.70
2023-05-14T04:56:35.781Z,11.80
2023-05-14T05:01:37.633Z,11.90
2023-05-14T05:06:39.721Z,12.00
2023-05-14T05:11:43.101Z,12.10
2023-05-14T05:16:45.267Z,12.20
2023-05-14T05:21:47.036Z,12.30
2023-05-14T05:26:52.014Z,12.40
2023-05-14T05:31:53.963Z,12.40
2023-05-14T05:36:56.262Z,12.40
2023-05-14T05:41:59.573Z,12.40
2023-05-14T05:47:01.276Z,12.60
2023-05-14T05:52:03.497Z,12.70
2023-05-14T05:57:07.354Z,12.80
2023-05-14T06:02:09.532Z,12.90
2023-05-14T06:07:11.582Z,13.10
2023-05-14T06:12:15.300Z,13.30
2023-05-14T06:17:17.400Z,13.30
2023-05-14T06:22:19.320Z,13.20
2023-05-14T06:27:22.385Z,13.30
2023-05-14T06:32:24.213Z,13.40
2023-05-14T06:37:26.464Z,13.40
2023-05-14T06:42:52.296Z,13.50
2023-05-14T06:48:21.758Z,13.60
2023-05-14T06:53:55.277Z,13.90
2023-05-14T06:58:58.616Z,14.00
2023-05-14T07:04:00.753Z,13.90
2023-05-14T07:09:03.282Z,14.00
2023-05-14T07:14:06.619Z,14.40
2023-05-14T07:19:08.686Z,14.50
2023-05-14T07:24:11.114Z,14.60
2023-05-14T07:29:14.254Z,14.60
2023-05-14T07:34:16.558Z,14.50
2023-05-14T07:39:18.350Z,14.40
2023-05-14T07:44:21.967Z,14.20
2023-05-14T07:49:24.088Z,14.20
2023-05-14T07:54:25.905Z,14.30
2023-05-14T07:59:29.658Z,14.30
2023-05-14T08:04:31.856Z,14.30
2023-05-14T08:09:33.854Z,14.30
2023-05-14T08:14:37.627Z,14.30
2023-05-14T08:19:40.093Z,14.50
2023-05-14T08:24:43.507Z,14.80
2023-05-14T08:29:47.430Z,15.20
2023-05-14T08:34:49.398Z,15.80
2023-05-14T08:39:51.602Z,16.30
2023-05-14T08:45:03.168Z,16.60
2023-05-14T08:50:07.567Z,16.70
2023-05-14T08:55:11.215Z,16.70
2023-05-14T09:00:16.480Z,16.50
2023-05-14T09:05:20.218Z,16.60
2023-05-14T09:10:22.939Z,17.20
2023-05-14T09:15:30.272Z,17.60
2023-05-14T09:20:33.202Z,17.90
2023-05-14T09:25:35.016Z,17.90
2023-05-14T09:30:39.118Z,17.80
2023-05-14T09:35:43.505Z,17.50
2023-05-14T09:40:47.117Z,17.20
2023-05-14T09:45:50.462Z,17.40
2023-05-14T09:50:52.499Z,17.40
2023-05-14T09:55:54.454Z,17.80
2023-05-14T10:00:59.368Z,18.00
2023-05-14T10:06:06.678Z,18.20
2023-05-14T10:11:14.589Z,17.90
2023-05-14T10:16:21.264Z,17.50
2023-05-14T10:21:25.023Z,17.80
2023-05-14T10:26:27.526Z,18.00
2023-05-14T10:31:49.859Z,18.10
2023-05-14T10:36:52.197Z,17.70
2023-05-14T10:41:55.057Z,17.50
2023-05-14T10:46:59.240Z,17.10
2023-05-14T10:52:01.781Z,16.70
2023-05-14T10:57:04.378Z,16.40
2023-05-14T11:02:23.441Z,16.00
2023-05-14T11:07:29.525Z,15.90
2023-05-14T11:12:31.524Z,16.10
2023-05-14T11:17:37.195Z,16.70
2023-05-14T11:22:41.638Z,16.90
2023-05-14T11:27:46.157Z,17.20
2023-05-14T11:32:51.438Z,18.10
2023-05-14T11:37:54.039Z,17.30
2023-05-14T11:42:55.991Z,16.50
2023-05-14T11:47:59.110Z,15.80
2023-05-14T11:53:01.049Z,15.10
2023-05-14T11:58:03.340Z,14.40
2023-05-14T12:03:07.227Z,14.00
2023-05-14T12:08:22.503Z,13.80
2023-05-14T12:13:27.666Z,13.50
2023-05-14T12:18:32.328Z,13.50
2023-05-14T12:24:11.359Z,13.60
2023-05-14T12:29:15.896Z,13.60
2023-05-14T12:34:19.156Z,13.60
2023-05-14T12:39:21.491Z,13.60
2023-05-14T12:44:23.904Z,13.80
2023-05-14T12:49:27.313Z,13.80
2023-05-14T12:54:29.656Z,13.80
2023-05-14T12:59:31.736Z,13.80
2023-05-14T13:04:35.426Z,13.80
2023-05-14T13:09:37.555Z,14.20
2023-05-14T13:14:39.794Z,14.60
2023-05-14T13:19:43.180Z,14.90
2023-05-14T13:24:45.030Z,14.70
2023-05-14T13:29:46.962Z,14.70
2023-05-14T13:34:50.218Z,14.80
2023-05-14T13:39:52.502Z,15.20
2023-05-14T13:44:56.502Z,15.30
2023-05-14T13:50:00.240Z,15.20
2023-05-14T13:55:02.395Z,15.00
2023-05-14T14:00:05.176Z,14.70
2023-05-14T14:05:09.952Z,14.60
2023-05-14T14:10:12.301Z,14.60
2023-05-14T14:15:14.348Z,14.50
2023-05-14T14:20:18.182Z,14.50
2023-05-14T14:25:20.607Z,14.30
2023-05-14T14:30:23.146Z,14.50
2023-05-14T14:35:27.266Z,14.60
2023-05-14T14:40:29.998Z,14.90
2023-05-14T14:45:32.615Z,14.80
2023-05-14T14:50:36.919Z,14.90
2023-05-14T14:55:39.844Z,15.30
2023-05-14T15:00:42.467Z,15.50
2023-05-14T15:05:46.509Z,15.40
2023-05-14T15:10:48.736Z,15.40
2023-05-14T15:15:53.883Z,16.70
2023-05-14T15:20:58.816Z,16.70
2023-05-14T15:26:01.519Z,16.20
2023-05-14T15:31:04.486Z,15.70
2023-05-14T15:36:08.787Z,15.40
2023-05-14T15:41:11.761Z,15.20
2023-05-14T15:46:14.742Z,15.60
2023-05-14T15:51:19.358Z,15.50
2023-05-14T15:56:22.338Z,15.50
2023-05-14T16:01:26.665Z,15.60
2023-05-14T16:06:31.217Z,15.60
2023-05-14T16:11:34.789Z,15.00
2023-05-14T16:16:38.746Z,15.10
2023-05-14T16:21:43.168Z,15.70
2023-05-14T16:26:46.426Z,16.00
2023-05-14T16:31:49.559Z,15.80
2023-05-14T16:36:53.517Z,15.10
2023-05-14T16:41:56.657Z,14.90
2023-05-14T16:46:59.635Z,15.20
2023-05-14T16:52:04.282Z,16.20
2023-05-14T16:57:07.671Z,15.60
2023-05-14T17:02:10.480Z,15.80
2023-05-14T17:07:15.281Z,15.30
2023-05-14T17:12:18.198Z,14.90
2023-05-14T17:17:20.894Z,15.10
2023-05-14T17:22:25.160Z,14.80
2023-05-14T17:27:30.010Z,14.90
2023-05-14T17:32:33.262Z,14.90
2023-05-14T17:37:37.905Z,14.70
2023-05-14T17:42:40.445Z,14.40
2023-05-14T17:47:43.415Z,14.40
2023-05-14T17:52:48.463Z,14.00
2023-05-14T17:57:51.611Z,13.60
2023-05-14T18:02:54.751Z,13.40
2023-05-14T18:08:00.012Z,13.40
2023-05-14T18:13:03.216Z,13.30
2023-05-14T18:18:06.742Z,13.20
2023-05-14T18:23:11.603Z,13.20
2023-05-14T18:28:14.417Z,12.80
2023-05-14T18:33:17.332Z,12.60
2023-05-14T18:38:22.759Z,12.50
2023-05-14T18:43:25.611Z,12.30
2023-05-14T18:48:28.836Z,12.20
2023-05-14T18:53:35.513Z,12.10
2023-05-14T18:58:38.236Z,11.90
2023-05-14T19:03:42.984Z,11.80
2023-05-14T19:08:56.578Z,11.70
2023-05-14T19:14:01.601Z,11.60
2023-05-14T19:19:04.912Z,11.60
2023-05-14T19:24:10.078Z,11.40
2023-05-14T19:29:13.243Z,11.30
2023-05-14T19:34:16.119Z,11.20
2023-05-14T19:39:20.337Z,11.20
2023-05-14T19:44:23.300Z,11.20
2023-05-14T19:49:26.590Z,11.20
2023-05-14T19:54:31.129Z,11.20
2023-05-14T19:59:36.632Z,11.20
2023-05-14T20:04:41.166Z,11.30
2023-05-14T20:09:47.588Z,11.20
2023-05-14T20:14:50.963Z,11.10
2023-05-14T20:19:54.626Z,11.00
2023-05-14T20:24:59.081Z,11.10
2023-05-14T20:30:01.984Z,11.10
2023-05-14T20:35:04.872Z,11.10
2023-05-14T20:40:13.257Z,11.00
2023-05-14T20:45:17.532Z,10.90
2023-05-14T20:50:22.199Z,11.00
2023-05-14T20:55:27.385Z,11.00
2023-05-14T21:00:30.180Z,11.00
2023-05-14T21:05:32.711Z,10.90
2023-05-14T21:10:36.260Z,11.00
2023-05-14T21:15:39.533Z,10.90
2023-05-14T21:20:42.079Z,10.90
2023-05-14T21:25:45.788Z,10.80
2023-05-14T21:30:48.025Z,10.80
2023-05-14T21:35:50.122Z,10.80
2023-05-14T21:40:53.512Z,10.80
2023-05-14T21:45:56.800Z,10.70
2023-05-14T21:50:59.030Z,10.60
2023-05-14T21:56:02.580Z,10.60
2023-05-14T22:01:05.029Z,10.50
2023-05-14T22:06:07.524Z,10.50
2023-05-14T22:11:10.625Z,10.50
2023-05-14T22:16:14.285Z,10.40
2023-05-14T22:21:16.542Z,10.40
2023-05-14T22:26:19.957Z,10.50
2023-05-14T22:31:22.119Z,10.50
2023-05-14T22:36:24.611Z,10.60
2023-05-14T22:41:27.721Z,10.70
2023-05-14T22:46:29.571Z,10.60
2023-05-14T22:51:31.603Z,10.60
2023-05-14T22:56:35.316Z,10.60
2023-05-14T23:01:37.574Z,10.50
2023-05-14T23:06:39.528Z,10.50
2023-05-14T23:11:43.296Z,10.60
2023-05-14T23:16:45.398Z,10.60
2023-05-14T23:21:47.389Z,10.60
2023-05-14T23:26:51.297Z,10.70
2023-05-14T23:31:53.119Z,10.60
2023-05-14T23:36:55.644Z,10.60
2023-05-14T23:41:59.077Z,10.50
2023-05-14T23:47:00.891Z,10.40
2023-05-14T23:52:03.442Z,10.40
2023-05-14T23:57:07.178Z,10.40
